Time;durP1;ratioP1;P1;durP2;ratioP2;P2;SDS_P1;SDS_P2;PMS_P1;PMS_P2;Temp;Humidity;BMP_temperature;BMP_pressure;BME280_temperature;BME280_humidity;BME280_pressure;Samples;Min_cycle;Max_cycle;Signal;HPM_P1;HPM_P2
2023/05/27 00:01:28;;;;;;;1.50;1.30;;;14.70;99.90;;;;;;5073505;28;20456;-83
2023/05/27 00:03:56;;;;;;;8.20;1.33;;;14.70;99.80;;;;;;5073438;28;20472;-83
2023/05/27 00:06:23;;;;;;;2.40;1.63;;;14.60;99.50;;;;;;5073127;28;20452;-83
2023/05/27 00:08:50;;;;;;;5.10;1.50;;;14.60;99.40;;;;;;5073386;28;20468;-83
2023/05/27 00:11:17;;;;;;;10.83;1.30;;;14.70;99.60;;;;;;5073402;28;20456;-83
2023/05/27 00:13:43;;;;;;;3.47;1.40;;;14.60;99.80;;;;;;5073307;28;20488;-82
2023/05/27 00:16:11;;;;;;;4.80;2.07;;;14.70;99.90;;;;;;5073159;28;20490;-83
2023/05/27 00:18:37;;;;;;;2.13;1.50;;;14.60;99.90;;;;;;5072970;28;20932;-83
2023/05/27 00:21:06;;;;;;;3.47;1.50;;;14.60;99.90;;;;;;5072934;28;20480;-83
2023/05/27 00:23:32;;;;;;;3.63;1.17;;;14.60;99.90;;;;;;5073323;28;20444;-83
2023/05/27 00:25:59;;;;;;;2.50;1.37;;;14.60;99.80;;;;;;5072875;28;20507;-83
2023/05/27 00:28:28;;;;;;;5.23;1.37;;;14.70;99.90;;;;;;5073207;28;20456;-83
2023/05/27 00:30:55;;;;;;;3.50;1.20;;;14.70;99.90;;;;;;5073224;28;20495;-83
2023/05/27 00:33:22;;;;;;;5.33;1.50;;;14.70;99.90;;;;;;5073072;28;20472;-83
2023/05/27 00:35:49;;;;;;;2.90;1.57;;;14.70;99.90;;;;;;5073100;28;20471;-83
2023/05/27 00:38:17;;;;;;;2.57;1.73;;;14.70;99.90;;;;;;5073159;28;20471;-83
2023/05/27 00:40:44;;;;;;;9.00;1.70;;;14.70;99.50;;;;;;5073093;28;20444;-83
2023/05/27 00:43:11;;;;;;;3.30;1.37;;;14.60;99.90;;;;;;5073246;28;20522;-83
2023/05/27 00:45:38;;;;;;;3.27;0.90;;;14.50;99.90;;;;;;5073037;28;20460;-83
2023/05/27 00:48:05;;;;;;;1.67;1.37;;;14.50;99.90;;;;;;5072808;28;20425;-83
2023/05/27 00:50:32;;;;;;;2.53;1.20;;;14.50;99.90;;;;;;5072748;28;20436;-83
2023/05/27 00:52:59;;;;;;;2.50;1.63;;;14.40;99.90;;;;;;5072994;28;20441;-83
2023/05/27 00:55:27;;;;;;;4.33;1.73;;;14.30;99.90;;;;;;5072569;28;20520;-83
2023/05/27 00:57:54;;;;;;;3.47;1.57;;;14.30;99.90;;;;;;5073029;28;20441;-83
2023/05/27 01:00:21;;;;;;;3.90;1.37;;;14.30;99.90;;;;;;5073080;28;20452;-83
2023/05/27 01:02:48;;;;;;;4.13;1.97;;;14.20;99.90;;;;;;5072900;28;20441;-83
2023/05/27 01:05:16;;;;;;;5.13;1.90;;;14.20;99.90;;;;;;5072846;28;20464;-83
2023/05/27 01:08:01;;;;;;;2.83;1.33;;;14.20;99.90;;;;;;5072586;28;20968;-83
2023/05/27 01:10:37;;;;;;;2.33;1.37;;;14.20;99.90;;;;;;5073019;28;20437;-83
2023/05/27 01:13:12;;;;;;;4.27;1.60;;;14.20;99.90;;;;;;5072566;28;20425;-83
2023/05/27 01:15:40;;;;;;;3.60;0.80;;;14.10;99.90;;;;;;5072723;28;20488;-83
2023/05/27 01:18:09;;;;;;;3.27;1.77;;;14.10;99.90;;;;;;5072726;28;20449;-83
2023/05/27 01:20:40;;;;;;;2.70;1.53;;;14.10;99.90;;;;;;5072389;28;20487;-83
2023/05/27 01:23:09;;;;;;;1.27;1.17;;;14.10;99.90;;;;;;5073050;28;20917;-83
2023/05/27 01:25:36;;;;;;;3.80;1.03;;;14.00;99.90;;;;;;5072600;28;20479;-83
2023/05/27 01:28:02;;;;;;;1.63;1.00;;;14.00;99.90;;;;;;5074003;28;20452;-83
2023/05/27 01:30:29;;;;;;;6.33;2.13;;;14.00;99.90;;;;;;5076262;28;20449;-83
2023/05/27 01:33:01;;;;;;;1.17;1.03;;;14.00;99.90;;;;;;5076208;28;20445;-83
2023/05/27 01:35:32;;;;;;;2.10;1.40;;;14.00;99.90;;;;;;5076058;28;20495;-83
2023/05/27 01:38:02;;;;;;;1.43;0.87;;;14.00;99.90;;;;;;5075809;28;20448;-83
2023/05/27 01:40:30;;;;;;;4.90;1.57;;;14.00;99.80;;;;;;5075838;28;20928;-83
2023/05/27 01:42:58;;;;;;;2.77;1.70;;;14.00;99.90;;;;;;5076060;28;20457;-83
2023/05/27 01:45:25;;;;;;;1.23;0.77;;;14.00;99.90;;;;;;5076111;28;20465;-83
2023/05/27 01:47:52;;;;;;;1.97;1.00;;;14.00;99.90;;;;;;5075905;28;20510;-83
2023/05/27 01:50:19;;;;;;;3.20;2.20;;;14.00;99.90;;;;;;5076145;28;20445;-83
2023/05/27 01:52:46;;;;;;;9.80;2.20;;;13.90;99.90;;;;;;5075565;28;20932;-83
2023/05/27 01:55:13;;;;;;;4.50;1.33;;;13.90;99.90;;;;;;5075381;28;21003;-83
2023/05/27 01:57:41;;;;;;;5.70;0.93;;;13.80;99.90;;;;;;5075972;28;20445;-83
2023/05/27 02:00:09;;;;;;;1.63;1.13;;;13.80;99.90;;;;;;5075733;28;20449;-83
2023/05/27 02:02:36;;;;;;;2.00;0.77;;;13.90;99.80;;;;;;5075377;28;20944;-83
2023/05/27 02:05:03;;;;;;;1.37;1.00;;;13.90;99.70;;;;;;5075270;28;20999;-83
2023/05/27 02:07:30;;;;;;;2.60;1.37;;;13.80;99.90;;;;;;5075616;28;20445;-83
2023/05/27 02:09:56;;;;;;;5.70;1.77;;;13.80;99.90;;;;;;5075411;28;20449;-83
2023/05/27 02:12:23;;;;;;;3.33;1.40;;;13.80;99.90;;;;;;5076104;28;20449;-83
2023/05/27 02:14:51;;;;;;;2.40;1.37;;;13.80;99.90;;;;;;5075306;28;20495;-83
2023/05/27 02:17:18;;;;;;;2.53;1.03;;;13.80;99.90;;;;;;5075416;28;20490;-83
2023/05/27 02:19:45;;;;;;;8.63;1.10;;;13.70;99.90;;;;;;5075325;28;20469;-83
2023/05/27 02:22:13;;;;;;;7.10;1.10;;;13.80;99.90;;;;;;5075238;28;20445;-83
2023/05/27 02:24:40;;;;;;;9.77;1.30;;;13.80;99.90;;;;;;5075200;28;20457;-83
2023/05/27 02:27:07;;;;;;;5.17;2.40;;;13.70;99.90;;;;;;5074951;28;20812;-83
2023/05/27 02:29:33;;;;;;;1.30;0.70;;;13.70;99.90;;;;;;5075220;28;20448;-83
2023/05/27 02:32:02;;;;;;;1.30;1.20;;;13.60;99.90;;;;;;5075171;28;20452;-82
2023/05/27 02:34:28;;;;;;;0.70;0.70;;;13.60;99.90;;;;;;5074973;28;20491;-83
2023/05/27 02:36:55;;;;;;;2.20;0.77;;;13.60;99.90;;;;;;5075266;28;20550;-83
2023/05/27 02:39:22;;;;;;;0.80;0.70;;;13.60;99.90;;;;;;5075015;28;20477;-83
2023/05/27 02:41:49;;;;;;;4.53;1.63;;;13.50;99.90;;;;;;5074960;28;20451;-83
2023/05/27 02:44:15;;;;;;;1.33;1.23;;;13.40;99.90;;;;;;5075107;28;20465;-83
2023/05/27 02:46:42;;;;;;;2.77;1.00;;;13.40;99.90;;;;;;5074838;28;20456;-82
2023/05/27 02:49:10;;;;;;;2.57;1.13;;;13.30;99.90;;;;;;5074815;28;20516;-83
2023/05/27 02:51:37;;;;;;;1.53;0.73;;;13.20;99.90;;;;;;5074593;28;20963;-83
2023/05/27 02:54:04;;;;;;;2.47;1.67;;;13.20;99.90;;;;;;5074519;28;20476;-83
2023/05/27 02:56:30;;;;;;;1.00;0.73;;;13.10;99.90;;;;;;5074784;28;20449;-83
2023/05/27 02:58:57;;;;;;;1.13;0.90;;;13.10;99.90;;;;;;5074572;28;20452;-83
2023/05/27 03:01:24;;;;;;;2.13;1.20;;;13.00;99.90;;;;;;5074243;28;20958;-83
2023/05/27 03:03:51;;;;;;;1.43;0.80;;;13.00;99.90;;;;;;5074635;28;20876;-83
2023/05/27 03:06:19;;;;;;;2.90;1.47;;;12.90;99.90;;;;;;5074452;28;20448;-83
2023/05/27 03:08:46;;;;;;;0.90;0.83;;;12.90;99.90;;;;;;5074381;28;20451;-83
2023/05/27 03:11:13;;;;;;;2.57;0.90;;;12.80;99.90;;;;;;5073996;28;20971;-83
2023/05/27 03:13:40;;;;;;;1.53;1.30;;;12.80;99.90;;;;;;5074223;28;20441;-82
2023/05/27 03:16:07;;;;;;;6.73;2.13;;;12.80;99.90;;;;;;5074174;28;20495;-82
2023/05/27 03:18:34;;;;;;;8.63;1.23;;;12.70;99.90;;;;;;5074145;28;20456;-82
2023/05/27 03:21:01;;;;;;;5.33;1.33;;;12.70;99.90;;;;;;5073865;28;20483;-82
2023/05/27 03:23:29;;;;;;;3.23;1.03;;;12.70;99.90;;;;;;5073743;28;20936;-82
2023/05/27 03:25:55;;;;;;;2.73;1.67;;;12.70;99.90;;;;;;5073645;28;21029;-82
2023/05/27 03:28:22;;;;;;;0.87;0.87;;;12.70;99.90;;;;;;5074031;28;20457;-82
2023/05/27 03:30:49;;;;;;;5.97;1.17;;;12.60;99.90;;;;;;5073952;28;20437;-82
2023/05/27 03:33:16;;;;;;;3.47;1.33;;;12.60;99.90;;;;;;5073628;28;20449;-82
2023/05/27 03:35:43;;;;;;;1.27;0.70;;;12.50;99.90;;;;;;5073954;28;20488;-82
2023/05/27 03:38:09;;;;;;;1.90;1.07;;;12.60;99.90;;;;;;5073849;28;20815;-82
2023/05/27 03:40:37;;;;;;;2.97;1.00;;;12.50;99.90;;;;;;5073564;28;20452;-82
2023/05/27 03:43:04;;;;;;;4.00;1.37;;;12.50;99.90;;;;;;5073742;28;20445;-82
2023/05/27 03:45:31;;;;;;;4.13;1.20;;;12.50;99.90;;;;;;5073341;28;20476;-82
2023/05/27 03:47:58;;;;;;;1.00;1.00;;;12.40;99.90;;;;;;5073366;28;21009;-82
2023/05/27 03:50:24;;;;;;;1.33;0.93;;;12.40;99.90;;;;;;5073205;28;20448;-82
2023/05/27 03:52:51;;;;;;;5.53;1.47;;;12.40;99.90;;;;;;5073568;28;20527;-82
2023/05/27 03:55:20;;;;;;;3.53;1.83;;;12.40;99.90;;;;;;5074000;28;20492;-82
2023/05/27 03:57:48;;;;;;;2.93;1.00;;;12.40;99.90;;;;;;5073566;28;20506;-82
2023/05/27 04:00:16;;;;;;;2.00;1.00;;;12.40;99.90;;;;;;5073529;28;20551;-82
2023/05/27 04:02:44;;;;;;;5.13;1.10;;;12.50;99.90;;;;;;5073661;28;20483;-82
2023/05/27 04:05:11;;;;;;;5.50;1.07;;;12.50;99.90;;;;;;5073095;28;20998;-82
2023/05/27 04:07:38;;;;;;;3.13;1.00;;;12.50;99.90;;;;;;5073497;28;20467;-82
2023/05/27 04:10:06;;;;;;;3.97;1.20;;;12.50;99.90;;;;;;5073417;28;20452;-82
2023/05/27 04:12:34;;;;;;;1.63;1.10;;;12.50;99.90;;;;;;5073165;28;21015;-82
2023/05/27 04:15:02;;;;;;;5.80;1.20;;;12.60;99.90;;;;;;5073336;28;20477;-82
2023/05/27 04:17:29;;;;;;;2.67;1.33;;;12.60;99.90;;;;;;5073116;28;20963;-81
2023/05/27 04:19:56;;;;;;;7.30;1.80;;;12.50;99.90;;;;;;5073315;28;20476;-82
2023/05/27 04:22:23;;;;;;;1.23;1.07;;;12.60;99.90;;;;;;5073282;28;20443;-82
2023/05/27 04:24:49;;;;;;;1.83;1.30;;;12.60;99.90;;;;;;5073806;28;20461;-82
2023/05/27 04:27:18;;;;;;;2.30;0.80;;;12.60;99.90;;;;;;5072996;28;20948;-82
2023/05/27 04:29:45;;;;;;;2.60;1.00;;;12.60;99.90;;;;;;5073058;28;20502;-82
2023/05/27 04:32:13;;;;;;;2.20;1.20;;;12.70;99.90;;;;;;5073547;28;20479;-82
2023/05/27 04:34:41;;;;;;;5.07;1.57;;;12.80;99.90;;;;;;5072966;28;20469;-82
2023/05/27 04:37:09;;;;;;;4.07;1.50;;;12.80;99.90;;;;;;5072883;28;21019;-82
2023/05/27 04:39:36;;;;;;;1.00;1.00;;;12.90;99.90;;;;;;5073752;28;20449;-82
2023/05/27 04:42:03;;;;;;;2.70;1.33;;;12.90;99.90;;;;;;5072927;28;20445;-82
2023/05/27 04:44:30;;;;;;;1.37;0.97;;;12.90;99.90;;;;;;5073205;28;20504;-82
2023/05/27 04:46:56;;;;;;;1.33;1.23;;;12.90;99.90;;;;;;5073140;28;20455;-82
2023/05/27 04:49:24;;;;;;;1.93;1.10;;;13.00;99.90;;;;;;5072858;28;20831;-82
2023/05/27 04:51:51;;;;;;;5.03;0.90;;;13.00;99.90;;;;;;5072701;28;20452;-82
2023/05/27 04:54:18;;;;;;;1.47;1.30;;;13.00;99.90;;;;;;5072939;28;20477;-82
2023/05/27 04:56:45;;;;;;;2.53;1.30;;;13.00;99.90;;;;;;5072721;28;21082;-82
2023/05/27 04:59:16;;;;;;;1.10;0.80;;;13.10;99.90;;;;;;5072652;28;20975;-82
2023/05/27 05:01:59;;;;;;;1.70;1.60;;;13.20;99.90;;;;;;5073036;28;20528;-82
2023/05/27 05:04:27;;;;;;;11.80;1.70;;;13.20;99.90;;;;;;5076507;28;20477;-82
2023/05/27 05:06:55;;;;;;;2.30;1.20;;;13.30;99.90;;;;;;5076720;28;20456;-82
2023/05/27 05:09:22;;;;;;;2.80;1.57;;;13.40;99.90;;;;;;5076638;28;20900;-82
2023/05/27 05:11:49;;;;;;;13.83;1.90;;;13.40;99.90;;;;;;5076642;28;20450;-82
2023/05/27 05:14:15;;;;;;;4.90;1.20;;;13.50;99.90;;;;;;5076394;28;20495;-82
2023/05/27 05:16:42;;;;;;;3.70;1.60;;;13.50;99.90;;;;;;5076505;28;20476;-82
2023/05/27 05:19:09;;;;;;;3.07;1.40;;;13.50;99.90;;;;;;5076162;28;20484;-83
2023/05/27 05:21:37;;;;;;;2.73;1.63;;;13.60;99.90;;;;;;5076238;28;20480;-82
2023/05/27 05:24:04;;;;;;;1.33;0.97;;;13.70;99.90;;;;;;5076015;28;20475;-82
2023/05/27 05:26:31;;;;;;;2.33;0.97;;;13.70;99.90;;;;;;5076039;28;20868;-83
2023/05/27 05:28:58;;;;;;;3.73;1.20;;;13.80;99.90;;;;;;5076251;28;20457;-82
2023/05/27 05:31:24;;;;;;;3.97;1.47;;;13.80;99.90;;;;;;5076277;28;20455;-84
2023/05/27 05:33:51;;;;;;;1.20;0.97;;;13.90;99.90;;;;;;5076071;28;20456;-83
2023/05/27 05:36:18;;;;;;;5.90;1.83;;;14.00;99.90;;;;;;5075877;28;20480;-82
2023/05/27 05:38:46;;;;;;;8.33;1.97;;;14.00;99.90;;;;;;5076163;28;20448;-83
2023/05/27 05:41:13;;;;;;;2.50;2.30;;;14.20;99.90;;;;;;5076103;28;20457;-83
2023/05/27 05:43:39;;;;;;;1.40;1.17;;;14.20;99.90;;;;;;5075741;28;20952;-83
2023/05/27 05:46:07;;;;;;;6.27;1.20;;;14.30;99.90;;;;;;5075736;28;20818;-83
2023/05/27 05:48:33;;;;;;;11.83;1.23;;;14.40;99.90;;;;;;5076032;28;20452;-83
2023/05/27 05:51:01;;;;;;;7.13;1.83;;;14.50;99.90;;;;;;5075991;28;20441;-83
2023/05/27 05:53:29;;;;;;;2.13;1.10;;;14.60;99.90;;;;;;5075856;28;20844;-83
2023/05/27 05:55:57;;;;;;;4.97;1.50;;;14.70;99.90;;;;;;5075706;28;20990;-83
2023/05/27 05:58:24;;;;;;;5.20;1.17;;;14.90;99.90;;;;;;5075836;28;20441;-83
2023/05/27 06:00:51;;;;;;;4.57;1.83;;;15.00;99.90;;;;;;5075534;28;20944;-83
2023/05/27 06:03:17;;;;;;;4.30;1.37;;;15.10;99.90;;;;;;5075652;28;20475;-83
2023/05/27 06:05:44;;;;;;;9.33;1.53;;;15.20;99.90;;;;;;5075610;28;20461;-83
2023/05/27 06:08:11;;;;;;;1.57;1.47;;;15.50;99.90;;;;;;5075610;28;20474;-83
2023/05/27 06:10:38;;;;;;;4.23;1.60;;;15.60;99.90;;;;;;5075819;28;20449;-83
2023/05/27 06:13:06;;;;;;;1.87;1.20;;;15.80;99.90;;;;;;5075289;28;20448;-82
2023/05/27 06:15:33;;;;;;;1.30;1.20;;;15.90;99.90;;;;;;5081236;28;20479;-83
2023/05/27 06:18:00;;;;;;;2.37;1.40;;;16.10;99.90;;;;;;5095879;28;20439;-83
2023/05/27 06:20:26;;;;;;;2.77;1.43;;;16.30;99.90;;;;;;5095176;28;20484;-83
2023/05/27 06:22:53;;;;;;;2.60;0.90;;;16.40;99.90;;;;;;5095914;28;20455;-83
2023/05/27 06:25:20;;;;;;;1.67;1.43;;;16.70;99.90;;;;;;5095504;28;20460;-83
2023/05/27 06:27:47;;;;;;;2.30;1.20;;;16.90;99.90;;;;;;5095512;28;20448;-84
2023/05/27 06:30:15;;;;;;;8.40;1.43;;;17.20;99.90;;;;;;5095196;28;20530;-83
2023/05/27 06:32:42;;;;;;;1.20;1.10;;;17.40;99.90;;;;;;5095177;28;20428;-83
2023/05/27 06:35:09;;;;;;;4.30;1.50;;;17.70;99.90;;;;;;5095250;28;20831;-84
2023/05/27 06:37:36;;;;;;;1.80;1.00;;;18.00;99.90;;;;;;5095365;28;20452;-84
2023/05/27 06:40:03;;;;;;;5.80;1.77;;;18.20;99.90;;;;;;5095303;28;20452;-84
2023/05/27 06:42:29;;;;;;;8.13;1.93;;;18.40;99.90;;;;;;5094904;28;20459;-83
2023/05/27 06:44:56;;;;;;;4.87;1.10;;;18.70;99.90;;;;;;5094809;28;20472;-83
2023/05/27 06:47:24;;;;;;;1.17;1.10;;;18.80;99.90;;;;;;5094888;28;20923;-83
2023/05/27 06:49:51;;;;;;;6.30;1.67;;;18.90;99.90;;;;;;5094825;28;20436;-83
2023/05/27 06:52:18;;;;;;;3.97;1.50;;;19.00;99.50;;;;;;5095049;28;20440;-83
2023/05/27 06:54:45;;;;;;;5.03;1.67;;;19.00;99.40;;;;;;5094704;28;20448;-84
2023/05/27 06:57:12;;;;;;;2.80;1.50;;;19.10;98.80;;;;;;5094866;28;20483;-84
2023/05/27 06:59:39;;;;;;;2.30;1.13;;;19.20;98.90;;;;;;5094922;28;20463;-85
2023/05/27 07:02:06;;;;;;;2.00;1.37;;;19.20;98.80;;;;;;5094815;28;20448;-83
2023/05/27 07:04:35;;;;;;;7.80;1.80;;;19.40;99.30;;;;;;5094570;28;21018;-84
2023/05/27 07:07:03;;;;;;;2.53;1.60;;;19.40;98.60;;;;;;5094999;28;20440;-84
2023/05/27 07:09:29;;;;;;;3.07;1.50;;;19.60;98.70;;;;;;5094677;28;20463;-84
2023/05/27 07:11:56;;;;;;;4.70;1.30;;;19.80;98.00;;;;;;5094362;28;20444;-84
2023/05/27 07:14:23;;;;;;;5.70;1.53;;;20.10;97.10;;;;;;5094609;28;20467;-84
2023/05/27 07:16:50;;;;;;;5.57;1.97;;;20.40;97.00;;;;;;5094586;28;20479;-84
2023/05/27 07:19:17;;;;;;;6.33;1.53;;;20.60;95.90;;;;;;5094517;28;20439;-83
2023/05/27 07:21:45;;;;;;;5.70;1.57;;;20.70;95.60;;;;;;5094258;28;20451;-84
2023/05/27 07:24:11;;;;;;;4.00;1.67;;;20.80;95.40;;;;;;5094167;28;20478;-84
2023/05/27 07:26:38;;;;;;;1.80;1.33;;;21.00;95.70;;;;;;5094132;28;20785;-84
2023/05/27 07:29:05;;;;;;;3.10;1.40;;;21.30;95.80;;;;;;5094281;28;20509;-85
2023/05/27 07:31:32;;;;;;;3.50;1.30;;;21.60;93.80;;;;;;5094342;28;20443;-85
2023/05/27 07:33:59;;;;;;;4.10;1.50;;;22.00;93.20;;;;;;5094128;28;20475;-84
2023/05/27 07:36:26;;;;;;;2.03;1.57;;;22.30;92.80;;;;;;5094080;28;20487;-85
2023/05/27 07:38:54;;;;;;;4.90;1.70;;;22.80;93.30;;;;;;5094109;28;20454;-86
2023/05/27 07:41:21;;;;;;;3.17;1.40;;;23.40;92.30;;;;;;5094440;28;20436;-86
2023/05/27 07:43:48;;;;;;;3.83;1.67;;;24.00;90.00;;;;;;5094009;28;20201;-84
2023/05/27 07:46:15;;;;;;;2.00;1.60;;;24.90;88.00;;;;;;5094171;28;20200;-85
2023/05/27 07:48:41;;;;;;;1.92;1.75;;;25.80;83.90;;;;;;5094153;28;20201;-85
2023/05/27 07:51:08;;;;;;;1.70;1.60;;;26.80;79.80;;;;;;5093931;28;20212;-85
2023/05/27 07:53:37;;;;;;;1.92;1.65;;;27.80;77.80;;;;;;5093910;28;20201;-86
2023/05/27 07:56:05;;;;;;;2.42;1.30;;;28.80;72.30;;;;;;5093812;28;20227;-85
2023/05/27 07:58:32;;;;;;;1.40;1.30;;;29.60;67.80;;;;;;5093617;28;20196;-85
2023/05/27 08:00:59;;;;;;;1.88;1.05;;;30.30;66.00;;;;;;5093714;28;20205;-88
2023/05/27 08:03:26;;;;;;;1.60;1.50;;;30.90;62.40;;;;;;5093923;28;20213;-88
2023/05/27 08:05:52;;;;;;;1.50;1.15;;;31.00;59.50;;;;;;5093728;28;20219;-88
2023/05/27 08:08:19;;;;;;;2.70;1.52;;;30.70;58.80;;;;;;5093825;28;20203;-87
2023/05/27 08:10:46;;;;;;;1.88;1.77;;;30.20;58.80;;;;;;5093949;28;20207;-86
2023/05/27 08:13:14;;;;;;;3.08;2.28;;;29.50;60.10;;;;;;5093803;28;20207;-87
2023/05/27 08:15:41;;;;;;;3.53;1.83;;;28.60;61.10;;;;;;5093667;28;20229;-88
2023/05/27 08:18:08;;;;;;;1.63;1.50;;;28.00;61.60;;;;;;5093495;28;20567;-87
2023/05/27 08:20:34;;;;;;;6.38;2.13;;;27.40;64.10;;;;;;5093488;28;20239;-87
2023/05/27 08:23:01;;;;;;;2.65;1.85;;;27.10;62.90;;;;;;5093491;28;20213;-87
2023/05/27 08:25:28;;;;;;;2.38;2.03;;;26.70;64.20;;;;;;5093631;28;20233;-86
2023/05/27 08:28:01;;;;;;;1.50;1.30;;;26.30;65.00;;;;;;5093597;28;20204;-86
2023/05/27 08:30:29;;;;;;;3.63;1.50;;;26.20;65.50;;;;;;5093460;28;20206;-86
2023/05/27 08:32:56;;;;;;;1.95;1.70;;;26.00;66.70;;;;;;5093997;28;20655;-87
2023/05/27 08:35:23;;;;;;;1.80;1.45;;;26.00;65.90;;;;;;5093148;28;20222;-87
2023/05/27 08:37:50;;;;;;;1.30;1.20;;;26.00;66.60;;;;;;5096424;28;20263;-87
2023/05/27 08:40:19;;;;;;;1.88;1.40;;;25.80;67.10;;;;;;5097650;28;20668;-89
2023/05/27 08:42:47;;;;;;;1.75;1.65;;;25.60;67.80;;;;;;5097945;28;20581;-86
2023/05/27 08:45:14;;;;;;;1.63;1.52;;;25.20;68.10;;;;;;5098353;28;20221;-87
2023/05/27 08:47:42;;;;;;;4.15;2.10;;;24.90;69.20;;;;;;5098028;28;20197;-86
2023/05/27 08:50:09;;;;;;;3.83;1.92;;;24.50;70.50;;;;;;5098123;28;20197;-88
2023/05/27 08:52:43;;;;;;;3.08;1.45;;;24.20;70.10;;;;;;5098314;28;20205;-89
2023/05/27 08:55:13;;;;;;;4.47;2.25;;;24.00;71.70;;;;;;5098066;28;20232;-88
2023/05/27 08:57:43;;;;;;;9.27;3.25;;;23.70;72.80;;;;;;5097873;28;20541;-87
2023/05/27 09:00:13;;;;;;;2.00;1.80;;;23.60;72.00;;;;;;5097931;28;20201;-88
2023/05/27 09:02:42;;;;;;;4.15;1.80;;;23.90;72.90;;;;;;5097791;28;20188;-88
2023/05/27 09:05:09;;;;;;;2.88;2.15;;;24.20;72.90;;;;;;5097448;28;20236;-88
2023/05/27 09:07:37;;;;;;;1.80;1.33;;;24.50;73.20;;;;;;5097792;28;20263;-88
2023/05/27 09:10:07;;;;;;;2.15;1.70;;;24.70;71.60;;;;;;5097733;28;20565;-87
2023/05/27 09:12:35;;;;;;;2.88;1.83;;;24.60;71.10;;;;;;5097222;28;20619;-87
2023/05/27 09:15:02;;;;;;;1.67;1.58;;;24.40;72.80;;;;;;5097403;28;20235;-88
2023/05/27 09:17:29;;;;;;;4.10;1.70;;;24.10;72.80;;;;;;5096898;28;20696;-86
2023/05/27 09:19:58;;;;;;;6.53;2.00;;;23.90;72.40;;;;;;5097174;28;20233;-87
2023/05/27 09:22:26;;;;;;;3.63;1.93;;;23.70;72.40;;;;;;5097525;28;20201;-88
2023/05/27 09:24:54;;;;;;;3.57;2.20;;;23.40;73.80;;;;;;5097364;28;20228;-88
2023/05/27 09:27:25;;;;;;;4.53;2.10;;;23.10;74.10;;;;;;5097536;28;20201;-87
2023/05/27 09:29:52;;;;;;;3.53;2.33;;;22.90;75.10;;;;;;5097018;28;20197;-86
2023/05/27 09:32:25;;;;;;;2.50;2.20;;;22.80;76.90;;;;;;5098313;28;20223;-89
2023/05/27 09:34:52;;;;;;;3.40;2.20;;;22.70;75.50;;;;;;5099293;28;20520;-86
2023/05/27 09:37:21;;;;;;;3.43;1.80;;;22.70;76.50;;;;;;5099323;28;20486;-87
2023/05/27 09:39:48;;;;;;;2.57;1.93;;;22.70;76.20;;;;;;5099608;28;20547;-86
2023/05/27 09:42:15;;;;;;;5.60;2.93;;;22.60;76.20;;;;;;5096789;28;20865;-86
2023/05/27 09:44:45;;;;;;;4.53;1.97;;;22.60;76.40;;;;;;5096631;28;20459;-85
2023/05/27 09:47:12;;;;;;;2.73;2.43;;;22.60;76.90;;;;;;5096421;28;20478;-85
2023/05/27 09:49:39;;;;;;;2.70;1.90;;;22.60;76.40;;;;;;5095843;28;20979;-87
2023/05/27 09:52:07;;;;;;;3.10;2.10;;;22.60;77.50;;;;;;5096705;28;20443;-87
2023/05/27 09:54:36;;;;;;;12.50;3.33;;;22.70;79.00;;;;;;5095901;28;20991;-85
2023/05/27 09:57:06;;;;;;;9.60;2.33;;;22.90;79.10;;;;;;5095639;28;20475;-87
2023/05/27 09:59:33;;;;;;;3.43;1.97;;;23.00;76.80;;;;;;5096113;28;20452;-85
2023/05/27 10:02:02;;;;;;;2.50;2.20;;;23.10;75.70;;;;;;5096122;28;20448;-86
2023/05/27 10:04:29;;;;;;;3.03;2.10;;;23.10;75.50;;;;;;5095389;28;20521;-86
2023/05/27 10:06:57;;;;;;;2.93;1.90;;;23.00;76.20;;;;;;5096603;28;20451;-88
2023/05/27 10:09:24;;;;;;;5.77;2.33;;;23.00;75.30;;;;;;5096631;28;20474;-85
2023/05/27 10:11:52;;;;;;;2.80;2.60;;;23.00;77.00;;;;;;5096393;28;20444;-86
2023/05/27 10:14:19;;;;;;;3.30;2.70;;;23.00;75.70;;;;;;5096575;28;20229;-87
2023/05/27 10:16:54;;;;;;;3.10;2.23;;;23.00;77.50;;;;;;5097008;28;20490;-86
2023/05/27 10:19:21;;;;;;;3.10;2.03;;;23.00;76.70;;;;;;5096897;28;20236;-88
2023/05/27 10:21:48;;;;;;;3.60;3.10;;;23.00;76.10;;;;;;5096173;28;20436;-86
2023/05/27 10:24:14;;;;;;;2.63;2.43;;;23.00;75.30;;;;;;5096416;28;20958;-86
2023/05/27 10:26:43;;;;;;;2.20;2.00;;;23.10;77.10;;;;;;5096117;28;20489;-86
2023/05/27 10:29:13;;;;;;;1.87;1.77;;;23.20;76.60;;;;;;5095917;28;20451;-88
2023/05/27 10:31:45;;;;;;;2.57;2.37;;;23.20;76.60;;;;;;5095730;28;20569;-87
2023/05/27 10:34:12;;;;;;;4.57;2.27;;;23.30;76.80;;;;;;5095836;28;20226;-87
2023/05/27 10:36:40;;;;;;;2.50;2.30;;;23.20;75.50;;;;;;5095851;28;20478;-87
2023/05/27 10:39:13;;;;;;;2.80;2.20;;;23.20;78.20;;;;;;5096065;28;20201;-87
2023/05/27 10:41:41;;;;;;;2.57;1.60;;;23.30;77.10;;;;;;5095747;28;20925;-89
2023/05/27 10:44:08;;;;;;;7.67;2.60;;;23.50;76.30;;;;;;5095999;28;20225;-87
2023/05/27 10:46:45;;;;;;;3.67;2.40;;;23.70;76.00;;;;;;5095745;28;20660;-88
2023/05/27 10:49:15;;;;;;;4.63;2.83;;;23.70;78.20;;;;;;5096262;28;20212;-87
2023/05/27 10:51:43;;;;;;;3.13;2.57;;;23.80;75.00;;;;;;5096073;28;20276;-89
2023/05/27 10:54:10;;;;;;;6.23;2.70;;;23.60;75.20;;;;;;5095468;28;20708;-85
2023/05/27 10:56:38;;;;;;;4.60;2.57;;;23.60;76.10;;;;;;5096467;28;20186;-86
2023/05/27 10:59:10;;;;;;;2.92;2.03;;;23.70;76.40;;;;;;5096231;28;20190;-86
2023/05/27 11:01:38;;;;;;;2.30;2.10;;;23.80;74.50;;;;;;5095037;28;20680;-87
2023/05/27 11:04:07;;;;;;;1.87;1.77;;;24.00;75.30;;;;;;5095435;28;20232;-88
2023/05/27 11:06:34;;;;;;;2.07;1.93;;;24.30;74.30;;;;;;5095768;28;20205;-86
2023/05/27 11:09:01;;;;;;;3.40;2.33;;;24.50;74.70;;;;;;5095947;28;20572;-87
2023/05/27 11:11:27;;;;;;;3.93;2.73;;;24.50;74.00;;;;;;5096282;28;20632;-89
2023/05/27 11:13:55;;;;;;;2.73;2.23;;;24.40;72.90;;;;;;5095856;28;20660;-91
2023/05/27 11:16:22;;;;;;;3.87;2.50;;;24.00;73.10;;;;;;5095513;28;20201;-87
2023/05/27 11:18:49;;;;;;;2.57;2.23;;;23.80;73.00;;;;;;5095263;28;20217;-87
2023/05/27 11:21:17;;;;;;;3.97;2.43;;;23.60;74.30;;;;;;5094993;28;20233;-89
2023/05/27 11:23:46;;;;;;;3.10;2.05;;;23.50;76.10;;;;;;5095299;28;20296;-87
2023/05/27 11:26:15;;;;;;;2.07;1.80;;;23.60;76.30;;;;;;5094597;28;20202;-87
2023/05/27 11:28:49;;;;;;;4.33;2.40;;;23.70;75.10;;;;;;5098291;28;20193;-88
2023/05/27 11:31:16;;;;;;;3.97;2.67;;;23.70;74.40;;;;;;5097486;28;20216;-87
2023/05/27 11:33:47;;;;;;;4.93;2.30;;;23.50;73.00;;;;;;5095319;28;20206;-86
2023/05/27 11:36:16;;;;;;;2.63;2.37;;;23.30;74.40;;;;;;5094717;28;20207;-86
2023/05/27 11:38:55;;;;;;;2.57;2.37;;;23.30;75.70;;;;;;5095126;28;20233;-85
2023/05/27 11:41:23;;;;;;;5.97;2.50;;;23.30;74.50;;;;;;5095110;28;20201;-85
2023/05/27 11:43:55;;;;;;;4.13;2.80;;;23.30;74.50;;;;;;5096718;28;20629;-88
2023/05/27 11:46:22;;;;;;;3.23;1.90;;;23.30;73.80;;;;;;5096255;28;20205;-80
2023/05/27 11:48:49;;;;;;;5.70;2.40;;;23.20;75.30;;;;;;5094292;28;20807;-85
2023/05/27 11:51:16;;;;;;;2.60;2.40;;;23.20;75.80;;;;;;5096359;28;20747;-89
2023/05/27 11:53:46;;;;;;;5.40;2.10;;;23.20;74.80;;;;;;5101698;28;20459;-87
2023/05/27 11:56:15;;;;;;;1.97;1.80;;;23.20;74.00;;;;;;5100357;28;20236;-88
2023/05/27 11:58:42;;;;;;;2.20;2.00;;;23.30;75.40;;;;;;5101272;28;20480;-89
2023/05/27 12:01:09;;;;;;;2.30;2.10;;;23.40;74.80;;;;;;5102074;28;20212;-90
2023/05/27 12:03:36;;;;;;;3.80;2.90;;;23.40;73.40;;;;;;5102078;28;20593;-89
2023/05/27 12:06:03;;;;;;;2.50;2.23;;;23.20;73.70;;;;;;5101833;28;20874;-91
2023/05/27 12:08:30;;;;;;;6.23;2.00;;;23.00;74.50;;;;;;5100640;28;20202;-91
2023/05/27 12:10:57;;;;;;;2.03;1.93;;;22.80;74.10;;;;;;5100577;28;20288;-89
2023/05/27 12:13:25;;;;;;;2.60;2.23;;;22.80;74.20;;;;;;5099668;28;20201;-88
2023/05/27 12:15:52;;;;;;;3.10;2.00;;;22.70;74.70;;;;;;5098358;28;20475;-89
2023/05/27 12:18:19;;;;;;;2.43;2.23;;;22.80;76.20;;;;;;5099642;28;20986;-89
2023/05/27 12:20:46;;;;;;;3.23;1.90;;;23.00;76.80;;;;;;5098597;28;20237;-88
2023/05/27 12:23:14;;;;;;;3.20;2.20;;;23.10;74.70;;;;;;5099711;28;20212;-88
2023/05/27 12:25:41;;;;;;;3.70;2.37;;;23.20;73.70;;;;;;5097819;28;20527;-86
2023/05/27 12:28:08;;;;;;;3.63;2.00;;;23.20;74.60;;;;;;5096115;28;20448;-87
2023/05/27 12:30:37;;;;;;;2.30;1.97;;;23.20;74.20;;;;;;5097571;28;20197;-93
2023/05/27 12:33:05;;;;;;;3.07;2.07;;;23.20;73.60;;;;;;5097973;28;20208;-88
2023/05/27 12:35:33;;;;;;;5.43;2.60;;;23.00;74.10;;;;;;5097154;28;20628;-91
2023/05/27 12:38:00;;;;;;;3.40;2.13;;;23.00;74.70;;;;;;5098842;28;20209;-90
2023/05/27 12:40:28;;;;;;;2.33;2.00;;;23.00;72.70;;;;;;5099027;28;20534;-87
2023/05/27 12:42:55;;;;;;;3.53;2.70;;;22.90;72.00;;;;;;5098643;28;20443;-88
2023/05/27 12:45:24;;;;;;;2.93;2.43;;;22.80;72.60;;;;;;5097717;28;20463;-88
2023/05/27 12:47:52;;;;;;;6.13;2.13;;;22.70;73.50;;;;;;5096252;28;20427;-89